Time;durP1;ratioP1;P1;durP2;ratioP2;P2;SDS_P1;SDS_P2;PMS_P1;PMS_P2;Temp;Humidity;BMP_temperature;BMP_pressure;BME280_temperature;BME280_humidity;BME280_pressure;Samples;Min_cycle;Max_cycle;Signal;HPM_P1;HPM_P2
2023/03/13 00:00:05;;;;;;;2.65;2.17;;;;;;;;;;4870751;29;20029;-79
2023/03/13 00:02:31;;;;;;;3.25;2.10;;;;;;;;;;4861930;29;20038;-80
2023/03/13 00:04:57;;;;;;;2.78;1.90;;;;;;;;;;4856320;29;20022;-79
2023/03/13 00:07:24;;;;;;;3.10;1.92;;;;;;;;;;4863397;29;20126;-80
2023/03/13 00:09:50;;;;;;;1.80;1.60;;;;;;;;;;4854258;29;20040;-79
2023/03/13 00:12:16;;;;;;;2.58;1.70;;;;;;;;;;4853622;29;20086;-79
2023/03/13 00:14:45;;;;;;;2.83;1.92;;;;;;;;;;4863539;29;20022;-80
2023/03/13 00:17:11;;;;;;;2.10;1.77;;;;;;;;;;4856033;29;20054;-80
2023/03/13 00:19:37;;;;;;;3.95;1.88;;;;;;;;;;4867294;29;20021;-79
2023/03/13 00:22:06;;;;;;;1.88;1.70;;;;;;;;;;4873260;29;20030;-80
2023/03/13 00:24:32;;;;;;;2.10;1.35;;;;;;;;;;4873375;29;20033;-79
2023/03/13 00:27:02;;;;;;;1.65;1.40;;;;;;;;;;4866110;29;20116;-79
2023/03/13 00:29:28;;;;;;;3.60;1.90;;;;;;;;;;4866869;29;20713;-79
2023/03/13 00:32:02;;;;;;;1.45;1.35;;;;;;;;;;4866663;29;20124;-79
2023/03/13 00:34:28;;;;;;;1.58;1.48;;;;;;;;;;4855430;29;20026;-78
2023/03/13 00:36:57;;;;;;;9.07;1.88;;;;;;;;;;4863104;29;20556;-78
2023/03/13 00:39:23;;;;;;;1.30;1.20;;;;;;;;;;4835008;29;20890;-78
2023/03/13 00:41:49;;;;;;;1.33;1.23;;;;;;;;;;4850636;29;20030;-77
2023/03/13 00:44:15;;;;;;;1.35;1.30;;;;;;;;;;4858606;29;20117;-78
2023/03/13 00:46:41;;;;;;;1.65;1.55;;;;;;;;;;4852072;29;20026;-79
2023/03/13 00:49:08;;;;;;;2.75;1.33;;;;;;;;;;4848903;29;20022;-78
2023/03/13 00:51:34;;;;;;;1.45;1.35;;;;;;;;;;4854215;29;20049;-78
2023/03/13 00:54:00;;;;;;;1.30;1.20;;;;;;;;;;4862440;29;20499;-79
2023/03/13 00:56:27;;;;;;;1.40;1.30;;;;;;;;;;4854989;29;20480;-79
2023/03/13 00:58:53;;;;;;;2.17;1.20;;;;;;;;;;4856388;29;20026;-79
2023/03/13 01:01:23;;;;;;;1.88;1.70;;;;;;;;;;4858870;29;20034;-79
2023/03/13 01:03:54;;;;;;;2.53;1.90;;;;;;;;;;4852636;29;20033;-78
2023/03/13 01:06:25;;;;;;;1.33;1.23;;;;;;;;;;4855347;29;20030;-78
2023/03/13 01:08:52;;;;;;;1.35;1.30;;;;;;;;;;4846512;29;20052;-80
2023/03/13 01:11:19;;;;;;;2.03;1.83;;;;;;;;;;4858465;29;20026;-79
2023/03/13 01:13:46;;;;;;;2.58;1.60;;;;;;;;;;4865159;29;20077;-79
2023/03/13 01:16:19;;;;;;;2.83;1.40;;;;;;;;;;4862080;29;20025;-80
2023/03/13 01:18:48;;;;;;;1.67;1.48;;;;;;;;;;4858806;29;20093;-80
2023/03/13 01:21:18;;;;;;;1.63;1.52;;;;;;;;;;4853916;29;20103;-80
2023/03/13 01:23:44;;;;;;;1.40;1.30;;;;;;;;;;4860034;29;20021;-80
2023/03/13 01:26:10;;;;;;;1.60;1.50;;;;;;;;;;4860572;29;20573;-79
2023/03/13 01:28:36;;;;;;;1.60;1.50;;;;;;;;;;4856157;29;20033;-80
2023/03/13 01:31:10;;;;;;;2.05;1.50;;;;;;;;;;4856167;29;20030;-79
2023/03/13 01:33:36;;;;;;;1.40;1.40;;;;;;;;;;4851147;29;20036;-80
2023/03/13 01:36:03;;;;;;;1.30;1.30;;;;;;;;;;4848718;29;20066;-79
2023/03/13 01:38:29;;;;;;;1.88;1.58;;;;;;;;;;4855787;29;20078;-80
2023/03/13 01:40:55;;;;;;;1.60;1.50;;;;;;;;;;4847942;29;20034;-79
2023/03/13 01:43:23;;;;;;;3.67;1.55;;;;;;;;;;4851982;29;20038;-79
2023/03/13 01:45:49;;;;;;;2.45;1.52;;;;;;;;;;4862229;29;20045;-80
2023/03/13 01:48:15;;;;;;;1.70;1.60;;;;;;;;;;4860328;29;20037;-79
2023/03/13 01:50:41;;;;;;;1.60;1.50;;;;;;;;;;4857015;29;20034;-79
2023/03/13 01:53:07;;;;;;;1.63;1.52;;;;;;;;;;4855816;29;20040;-79
2023/03/13 01:55:34;;;;;;;1.60;1.50;;;;;;;;;;4861306;29;20108;-79
2023/03/13 01:58:00;;;;;;;1.55;1.45;;;;;;;;;;4861047;29;20059;-80
2023/03/13 02:00:29;;;;;;;1.45;1.35;;;;;;;;;;4867938;29;20025;-79
2023/03/13 02:02:58;;;;;;;3.55;1.60;;;;;;;;;;4874267;29;20046;-79
2023/03/13 02:05:25;;;;;;;1.98;1.40;;;;;;;;;;4874588;29;20074;-82
2023/03/13 02:08:01;;;;;;;1.70;1.60;;;;;;;;;;4871337;29;20060;-82
2023/03/13 02:10:29;;;;;;;1.90;1.55;;;;;;;;;;4861246;29;20993;-80
2023/03/13 02:12:55;;;;;;;1.65;1.55;;;;;;;;;;4869342;29;20025;-80
2023/03/13 02:15:23;;;;;;;1.65;1.55;;;;;;;;;;4862116;29;20041;-81
2023/03/13 02:17:49;;;;;;;2.13;1.85;;;;;;;;;;4851530;29;20090;-80
2023/03/13 02:20:17;;;;;;;1.73;1.50;;;;;;;;;;4853673;29;20042;-80
2023/03/13 02:22:48;;;;;;;1.80;1.70;;;;;;;;;;4862734;29;20025;-82
2023/03/13 02:25:23;;;;;;;1.98;1.60;;;;;;;;;;4858007;29;20037;-80
2023/03/13 02:27:57;;;;;;;2.40;1.67;;;;;;;;;;4859221;29;20034;-80
2023/03/13 02:30:23;;;;;;;4.35;1.60;;;;;;;;;;4859790;29;20125;-81
2023/03/13 02:32:53;;;;;;;4.70;1.60;;;;;;;;;;4869832;29;20454;-79
2023/03/13 02:35:19;;;;;;;4.70;2.58;;;;;;;;;;4861254;29;20034;-80
2023/03/13 02:37:47;;;;;;;3.20;1.80;;;;;;;;;;4864121;29;20544;-80
2023/03/13 02:40:15;;;;;;;3.10;1.77;;;;;;;;;;4850585;29;20030;-80
2023/03/13 02:42:43;;;;;;;4.13;2.20;;;;;;;;;;4861929;29;20038;-80
2023/03/13 02:45:10;;;;;;;5.28;2.50;;;;;;;;;;4870693;29;20061;-80
2023/03/13 02:47:36;;;;;;;4.03;1.85;;;;;;;;;;4862341;29;20034;-79
2023/03/13 02:50:02;;;;;;;6.65;1.85;;;;;;;;;;4867622;29;20030;-80
2023/03/13 02:52:35;;;;;;;3.90;1.90;;;;;;;;;;4872682;29;20037;-80
2023/03/13 02:55:21;;;;;;;5.70;2.05;;;;;;;;;;4866959;29;20094;-82
2023/03/13 02:57:48;;;;;;;6.53;2.85;;;;;;;;;;4855387;29;20026;-79
2023/03/13 03:00:15;;;;;;;6.45;2.60;;;;;;;;;;4855726;29;20041;-80
2023/03/13 03:02:46;;;;;;;7.80;2.42;;;;;;;;;;4862495;29;20432;-80
2023/03/13 03:05:12;;;;;;;5.88;2.30;;;;;;;;;;4857491;29;20053;-80
2023/03/13 03:07:39;;;;;;;6.63;2.45;;;;;;;;;;4856528;29;20026;-80
2023/03/13 03:10:08;;;;;;;6.32;2.53;;;;;;;;;;4860705;29;20089;-80
2023/03/13 03:12:34;;;;;;;10.00;3.55;;;;;;;;;;4867418;29;20026;-80
2023/03/13 03:15:00;;;;;;;7.82;3.30;;;;;;;;;;4868744;29;20029;-79
2023/03/13 03:17:26;;;;;;;6.45;2.33;;;;;;;;;;4867872;29;20034;-80
2023/03/13 03:19:52;;;;;;;10.60;2.97;;;;;;;;;;4870185;29;20018;-81
2023/03/13 03:22:18;;;;;;;7.38;2.70;;;;;;;;;;4861287;29;20086;-79
2023/03/13 03:24:44;;;;;;;8.00;3.00;;;;;;;;;;4852394;29;20036;-79
2023/03/13 03:27:11;;;;;;;19.88;3.72;;;;;;;;;;4850304;29;20045;-78
2023/03/13 03:29:37;;;;;;;15.10;4.70;;;;;;;;;;4849386;29;20026;-78
2023/03/13 03:32:03;;;;;;;10.40;4.00;;;;;;;;;;4848992;29;20030;-79
2023/03/13 03:34:29;;;;;;;10.57;3.53;;;;;;;;;;4868207;29;20033;-78
2023/03/13 03:36:55;;;;;;;6.00;2.78;;;;;;;;;;4851563;29;20038;-80
2023/03/13 03:39:21;;;;;;;13.88;3.42;;;;;;;;;;4863700;29;20041;-79
2023/03/13 03:41:47;;;;;;;10.65;3.53;;;;;;;;;;4853531;29;20579;-81
2023/03/13 03:44:13;;;;;;;8.52;2.88;;;;;;;;;;4853588;29;20034;-79
2023/03/13 03:46:39;;;;;;;4.78;2.85;;;;;;;;;;4866358;29;20108;-79
2023/03/13 03:49:05;;;;;;;6.85;2.50;;;;;;;;;;4853983;29;20029;-81
2023/03/13 03:51:32;;;;;;;3.33;2.00;;;;;;;;;;4852403;29;20101;-79
2023/03/13 03:53:58;;;;;;;4.85;2.10;;;;;;;;;;4848710;29;20045;-78
2023/03/13 03:56:24;;;;;;;4.28;1.90;;;;;;;;;;4861200;29;20068;-80
2023/03/13 03:58:50;;;;;;;4.10;1.70;;;;;;;;;;4861422;29;20022;-79
2023/03/13 04:01:16;;;;;;;2.72;1.50;;;;;;;;;;4859915;29;20037;-79
2023/03/13 04:03:42;;;;;;;2.15;1.70;;;;;;;;;;4864649;29;20387;-79
2023/03/13 04:06:08;;;;;;;4.18;1.80;;;;;;;;;;4852242;29;20022;-80
2023/03/13 04:08:35;;;;;;;3.38;1.65;;;;;;;;;;4860020;29;20014;-78
2023/03/13 04:11:01;;;;;;;3.13;1.70;;;;;;;;;;4858572;29;20124;-79
2023/03/13 04:13:27;;;;;;;1.73;1.30;;;;;;;;;;4858174;29;20127;-79
2023/03/13 04:15:53;;;;;;;1.85;1.23;;;;;;;;;;4854997;29;20383;-79
2023/03/13 04:18:19;;;;;;;2.40;1.70;;;;;;;;;;4849339;29;20057;-79
2023/03/13 04:20:46;;;;;;;1.30;1.20;;;;;;;;;;4852876;29;20030;-79
2023/03/13 04:23:12;;;;;;;1.58;1.10;;;;;;;;;;4852215;29;20051;-78
2023/03/13 04:25:38;;;;;;;1.00;1.00;;;;;;;;;;4851204;29;20037;-78
2023/03/13 04:28:04;;;;;;;2.42;2.33;;;;;;;;;;4858811;29;20080;-78
2023/03/13 04:30:30;;;;;;;2.42;1.00;;;;;;;;;;4845412;29;20481;-79
2023/03/13 04:32:56;;;;;;;0.90;0.90;;;;;;;;;;4855351;29;20049;-78
2023/03/13 04:35:22;;;;;;;1.10;1.10;;;;;;;;;;4853693;29;20034;-79
2023/03/13 04:37:48;;;;;;;0.93;0.93;;;;;;;;;;4857654;29;20033;-80
2023/03/13 04:40:14;;;;;;;1.00;1.00;;;;;;;;;;4859483;29;20037;-79
2023/03/13 04:42:41;;;;;;;1.02;1.02;;;;;;;;;;4858314;29;20040;-80
2023/03/13 04:45:10;;;;;;;1.23;1.23;;;;;;;;;;4858790;29;20033;-80
2023/03/13 04:47:36;;;;;;;2.40;1.35;;;;;;;;;;4855093;29;20026;-80
2023/03/13 04:50:02;;;;;;;1.08;1.08;;;;;;;;;;4855970;29;20034;-80
2023/03/13 04:52:28;;;;;;;1.17;1.00;;;;;;;;;;4870834;29;20030;-82
2023/03/13 04:54:54;;;;;;;2.15;1.10;;;;;;;;;;4869798;29;20049;-80
2023/03/13 04:57:20;;;;;;;1.35;1.33;;;;;;;;;;4867417;29;20026;-79
2023/03/13 04:59:46;;;;;;;1.25;1.15;;;;;;;;;;4871331;29;20049;-82
2023/03/13 05:02:13;;;;;;;1.38;1.30;;;;;;;;;;4865979;29;20033;-82
2023/03/13 05:04:39;;;;;;;1.25;1.20;;;;;;;;;;4868273;29;20045;-81
2023/03/13 05:07:05;;;;;;;1.63;1.30;;;;;;;;;;4863911;29;20030;-80
2023/03/13 05:09:31;;;;;;;1.25;1.20;;;;;;;;;;4872862;29;20022;-81
2023/03/13 05:11:57;;;;;;;3.55;1.50;;;;;;;;;;4873899;29;20660;-81
2023/03/13 05:14:23;;;;;;;4.68;1.52;;;;;;;;;;4861053;29;20030;-81
2023/03/13 05:16:49;;;;;;;1.80;1.45;;;;;;;;;;4867677;29;20040;-81
2023/03/13 05:19:15;;;;;;;1.30;1.20;;;;;;;;;;4867684;29;20025;-80
2023/03/13 05:21:41;;;;;;;1.40;1.30;;;;;;;;;;4873300;29;20033;-82
2023/03/13 05:24:07;;;;;;;2.72;1.30;;;;;;;;;;4858120;29;20045;-81
2023/03/13 05:26:34;;;;;;;4.25;1.55;;;;;;;;;;4866238;29;20029;-79
2023/03/13 05:29:00;;;;;;;1.63;1.45;;;;;;;;;;4861847;29;20037;-81
2023/03/13 05:31:26;;;;;;;1.15;1.08;;;;;;;;;;4865063;29;20425;-81
2023/03/13 05:33:52;;;;;;;2.20;1.20;;;;;;;;;;4865136;29;20034;-80
2023/03/13 05:36:18;;;;;;;1.92;1.15;;;;;;;;;;4867123;29;20037;-80
2023/03/13 05:38:44;;;;;;;1.00;1.00;;;;;;;;;;4873886;29;20033;-80
2023/03/13 05:41:10;;;;;;;1.63;1.50;;;;;;;;;;4857190;29;20054;-81
2023/03/13 05:43:36;;;;;;;1.35;1.25;;;;;;;;;;4867126;29;20034;-82
2023/03/13 05:46:02;;;;;;;1.33;1.23;;;;;;;;;;4859982;29;20032;-81
2023/03/13 05:48:28;;;;;;;1.33;1.25;;;;;;;;;;4869580;29;20089;-80
2023/03/13 05:50:54;;;;;;;0.90;0.90;;;;;;;;;;4866790;29;21389;-80
2023/03/13 05:53:20;;;;;;;1.52;1.13;;;;;;;;;;4856377;29;20413;-80
2023/03/13 05:55:46;;;;;;;1.20;1.20;;;;;;;;;;4875882;29;20045;-81
2023/03/13 05:58:12;;;;;;;1.00;1.00;;;;;;;;;;4869275;29;20053;-81
2023/03/13 06:00:38;;;;;;;1.25;1.20;;;;;;;;;;4869559;29;20044;-81
2023/03/13 06:03:04;;;;;;;1.35;1.13;;;;;;;;;;4872880;29;20052;-81
2023/03/13 06:05:30;;;;;;;1.02;1.02;;;;;;;;;;4871345;29;20025;-81
2023/03/13 06:07:56;;;;;;;1.38;1.30;;;;;;;;;;4868361;29;20033;-81
2023/03/13 06:10:23;;;;;;;1.10;1.10;;;;;;;;;;4862450;29;20022;-81
2023/03/13 06:12:52;;;;;;;1.05;1.02;;;;;;;;;;4872238;29;20118;-82
2023/03/13 06:15:18;;;;;;;3.67;1.55;;;;;;;;;;4864637;29;20038;-82
2023/03/13 06:17:45;;;;;;;1.35;1.27;;;;;;;;;;4861191;29;20034;-80
2023/03/13 06:20:11;;;;;;;2.72;1.40;;;;;;;;;;4860776;29;20030;-81
2023/03/13 06:22:37;;;;;;;4.00;2.38;;;;;;;;;;4875556;29;20101;-80
2023/03/13 06:25:03;;;;;;;2.50;1.52;;;;;;;;;;4881394;29;20021;-81
2023/03/13 06:27:29;;;;;;;5.20;1.60;;;;;;;;;;4870065;29;20059;-80
2023/03/13 06:29:55;;;;;;;3.05;1.60;;;;;;;;;;4876673;29;20108;-81
2023/03/13 06:32:22;;;;;;;4.35;1.70;;;;;;;;;;4863974;29;20037;-81
2023/03/13 06:34:51;;;;;;;5.50;1.85;;;;;;;;;;4870333;29;20048;-81
2023/03/13 06:37:17;;;;;;;3.72;2.00;;;;;;;;;;4872727;29;20042;-80
2023/03/13 06:39:43;;;;;;;3.85;1.80;;;;;;;;;;4873520;29;20034;-81
2023/03/13 06:42:09;;;;;;;4.43;1.90;;;;;;;;;;4874287;29;20096;-80
2023/03/13 06:44:36;;;;;;;6.65;1.98;;;;;;;;;;4869123;29;20054;-80
2023/03/13 06:47:02;;;;;;;8.27;2.00;;;;;;;;;;4873951;29;20014;-81
2023/03/13 06:49:28;;;;;;;6.35;2.25;;;;;;;;;;4877065;29;20057;-81
2023/03/13 06:51:56;;;;;;;5.40;2.20;;;;;;;;;;4869037;29;20111;-82
2023/03/13 06:54:22;;;;;;;6.85;2.47;;;;;;;;;;4869011;29;20408;-82
2023/03/13 06:56:48;;;;;;;7.88;2.65;;;;;;;;;;4867621;29;20066;-81
2023/03/13 06:59:14;;;;;;;7.10;2.33;;;;;;;;;;4868909;29;20040;-81
2023/03/13 07:01:40;;;;;;;10.18;2.33;;;;;;;;;;4872161;29;20041;-81
2023/03/13 07:04:06;;;;;;;7.28;2.50;;;;;;;;;;4871524;29;20038;-83
2023/03/13 07:06:32;;;;;;;7.18;3.20;;;;;;;;;;4865022;29;20034;-80
2023/03/13 07:08:58;;;;;;;5.15;2.40;;;;;;;;;;4866573;29;20473;-81
2023/03/13 07:11:25;;;;;;;7.60;2.50;;;;;;;;;;4865189;29;20036;-81
2023/03/13 07:13:53;;;;;;;7.15;2.40;;;;;;;;;;4861476;29;20029;-82
2023/03/13 07:16:19;;;;;;;5.25;2.40;;;;;;;;;;4863871;29;20044;-82
2023/03/13 07:18:46;;;;;;;6.40;2.17;;;;;;;;;;4868125;29;20493;-81
2023/03/13 07:21:12;;;;;;;6.07;2.58;;;;;;;;;;4865079;29;20041;-81
2023/03/13 07:23:38;;;;;;;7.93;2.88;;;;;;;;;;4870529;29;20038;-81
2023/03/13 07:26:06;;;;;;;5.57;2.00;;;;;;;;;;4869072;29;20036;-82
2023/03/13 07:28:32;;;;;;;6.35;2.38;;;;;;;;;;4869983;29;20132;-80
2023/03/13 07:31:04;;;;;;;4.93;2.22;;;;;;;;;;4878935;29;20032;-81
2023/03/13 07:33:31;;;;;;;4.70;2.20;;;;;;;;;;4872445;29;20025;-81
2023/03/13 07:35:57;;;;;;;6.47;2.33;;;;;;;;;;4867287;29;20062;-81
2023/03/13 07:38:23;;;;;;;7.03;2.58;;;;;;;;;;4863149;29;20030;-81
2023/03/13 07:40:56;;;;;;;4.90;2.20;;;;;;;;;;4868861;29;20048;-82
2023/03/13 07:43:23;;;;;;;5.07;2.33;;;;;;;;;;4875790;29;20033;-80
2023/03/13 07:46:09;;;;;;;8.32;3.45;;;;;;;;;;4874906;29;20054;-81
2023/03/13 07:48:37;;;;;;;5.25;2.33;;;;;;;;;;4870843;29;20119;-80
2023/03/13 07:51:04;;;;;;;5.95;3.00;;;;;;;;;;4870939;29;20587;-81
2023/03/13 07:53:30;;;;;;;6.60;2.13;;;;;;;;;;4867938;29;20120;-81
2023/03/13 07:56:01;;;;;;;8.18;2.28;;;;;;;;;;4871455;29;20057;-82
2023/03/13 07:58:28;;;;;;;6.93;2.03;;;;;;;;;;4868694;29;20045;-82
2023/03/13 08:00:54;;;;;;;5.53;2.22;;;;;;;;;;4868782;29;20041;-82
2023/03/13 08:03:22;;;;;;;5.82;2.15;;;;;;;;;;4874488;29;20657;-81
2023/03/13 08:05:56;;;;;;;9.35;3.65;;;;;;;;;;4865397;29;20074;-82
2023/03/13 08:08:22;;;;;;;10.50;2.53;;;;;;;;;;4871512;29;20033;-81
2023/03/13 08:10:48;;;;;;;5.78;2.45;;;;;;;;;;4867738;29;20040;-81
2023/03/13 08:13:14;;;;;;;10.48;2.97;;;;;;;;;;4865082;29;20029;-82
2023/03/13 08:15:40;;;;;;;8.07;3.47;;;;;;;;;;4869672;29;20029;-81
2023/03/13 08:18:06;;;;;;;8.30;4.32;;;;;;;;;;4870597;29;20094;-81
2023/03/13 08:20:32;;;;;;;9.68;3.17;;;;;;;;;;4869443;29;20029;-83
2023/03/13 08:22:58;;;;;;;10.05;3.42;;;;;;;;;;4861313;29;20049;-81
2023/03/13 08:25:24;;;;;;;8.82;2.75;;;;;;;;;;4867978;29;20101;-82
2023/03/13 08:27:51;;;;;;;9.27;3.25;;;;;;;;;;4871524;29;20113;-81
2023/03/13 08:30:17;;;;;;;10.38;3.05;;;;;;;;;;4872767;29;20125;-80
2023/03/13 08:32:43;;;;;;;12.13;4.13;;;;;;;;;;4871913;29;20018;-81
2023/03/13 08:35:09;;;;;;;17.20;3.72;;;;;;;;;;4867315;29;20038;-81
2023/03/13 08:37:35;;;;;;;12.15;3.38;;;;;;;;;;4866162;29;20021;-82
2023/03/13 08:40:02;;;;;;;12.52;3.85;;;;;;;;;;4862419;29;20021;-82
2023/03/13 08:42:28;;;;;;;12.82;3.53;;;;;;;;;;4871016;29;20062;-82
2023/03/13 08:44:54;;;;;;;13.13;4.13;;;;;;;;;;4890775;29;20033;-83
2023/03/13 08:47:20;;;;;;;14.80;3.97;;;;;;;;;;4878226;29;20049;-83
2023/03/13 08:49:46;;;;;;;15.60;3.85;;;;;;;;;;4888704;29;20029;-81
2023/03/13 08:52:12;;;;;;;12.80;4.30;;;;;;;;;;4886079;29;20037;-81
2023/03/13 08:54:38;;;;;;;14.30;4.38;;;;;;;;;;4873967;29;20142;-80
2023/03/13 08:57:04;;;;;;;12.70;3.92;;;;;;;;;;4886135;29;20050;-79
2023/03/13 08:59:30;;;;;;;11.07;3.25;;;;;;;;;;4876759;29;20025;-81
2023/03/13 09:01:57;;;;;;;13.73;4.07;;;;;;;;;;4872476;29;20036;-81
2023/03/13 09:04:23;;;;;;;19.42;4.45;;;;;;;;;;4884161;29;20029;-81
2023/03/13 09:06:49;;;;;;;14.88;4.82;;;;;;;;;;4874999;29;20059;-81
2023/03/13 09:09:15;;;;;;;17.88;4.07;;;;;;;;;;4885537;29;20090;-81
2023/03/13 09:11:41;;;;;;;12.68;6.13;;;;;;;;;;4882199;29;20033;-82
2023/03/13 09:14:07;;;;;;;12.30;3.67;;;;;;;;;;4888698;29;20062;-82
2023/03/13 09:16:34;;;;;;;13.02;3.40;;;;;;;;;;4879323;29;20041;-82
2023/03/13 09:19:00;;;;;;;16.73;5.18;;;;;;;;;;4882149;29;20082;-81
2023/03/13 09:21:28;;;;;;;12.68;4.25;;;;;;;;;;4888349;29;20028;-82
2023/03/13 09:23:54;;;;;;;14.57;3.88;;;;;;;;;;4890427;29;20076;-81
2023/03/13 09:26:20;;;;;;;10.75;3.30;;;;;;;;;;4892003;29;20017;-83
2023/03/13 09:28:47;;;;;;;10.75;3.90;;;;;;;;;;4883345;29;20021;-81
2023/03/13 09:31:14;;;;;;;13.88;4.85;;;;;;;;;;4876249;29;20575;-79
2023/03/13 09:33:41;;;;;;;14.05;3.20;;;;;;;;;;4880614;29;20025;-80
2023/03/13 09:36:07;;;;;;;10.98;2.88;;;;;;;;;;4875951;29;20052;-81
2023/03/13 09:38:38;;;;;;;9.68;3.03;;;;;;;;;;4877533;29;20050;-80
2023/03/13 09:41:16;;;;;;;9.85;3.63;;;;;;;;;;4886470;29;20032;-79
2023/03/13 09:44:15;;;;;;;10.43;2.58;;;;;;;;;;4885873;29;20017;-80
2023/03/13 09:46:41;;;;;;;13.50;3.42;;;;;;;;;;4843748;29;20020;-83
2023/03/13 09:49:25;;;;;;;12.55;3.45;;;;;;;;;;4863202;29;20030;-82
2023/03/13 09:52:00;;;;;;;11.18;3.22;;;;;;;;;;4880046;29;20037;-81
2023/03/13 09:54:49;;;;;;;9.18;3.00;;;;;;;;;;4872126;29;20061;-81
2023/03/13 09:57:35;;;;;;;9.38;3.10;;;;;;;;;;4851491;29;20048;-83
2023/03/13 10:00:02;;;;;;;;;;;;;;;;;;4890308;29;20026;-83
2023/03/13 10:02:29;;;;;;;10.45;3.22;;;;;;;;;;4889845;29;19984;-82
2023/03/13 10:05:05;;;;;;;10.50;2.60;;;;;;;;;;4864671;29;20033;-82
2023/03/13 10:07:31;;;;;;;;;;;;;;;;;;4888132;29;20025;-83
2023/03/13 10:09:57;;;;;;;8.38;2.75;;;;;;;;;;4885314;29;19908;-84
2023/03/13 10:12:35;;;;;;;9.02;2.35;;;;;;;;;;4884232;29;20025;-82
2023/03/13 10:15:20;;;;;;;5.97;2.92;;;;;;;;;;4879243;29;20028;-82
2023/03/13 10:17:46;;;;;;;7.00;2.47;;;;;;;;;;4881353;29;20025;-81
2023/03/13 10:20:36;;;;;;;4.15;1.80;;;;;;;;;;4876636;29;20472;-80
2023/03/13 10:26:26;;;;;;;4.43;1.73;;;;;;;;;;4887790;29;20050;-85
2023/03/13 10:28:53;;;;;;;4.47;2.03;;;;;;;;;;4881496;29;20050;-80
2023/03/13 10:31:32;;;;;;;5.10;2.15;;;;;;;;;;4879066;29;20409;-81
2023/03/13 10:34:09;;;;;;;2.42;2.00;;;;;;;;;;4879274;29;20045;-80
2023/03/13 10:36:45;;;;;;;2.58;1.98;;;;;;;;;;4877579;29;20020;-80
2023/03/13 10:39:21;;;;;;;3.55;2.00;;;;;;;;;;4876491;29;20073;-81
2023/03/13 10:41:48;;;;;;;4.65;1.92;;;;;;;;;;4858215;29;20101;-81
2023/03/13 10:44:29;;;;;;;2.00;1.75;;;;;;;;;;4862998;29;20025;-81
2023/03/13 10:53:21;;;;;;;3.13;1.55;;;;;;;;;;4867351;29;20041;-78
2023/03/13 10:55:47;;;;;;;3.08;1.90;;;;;;;;;;4882654;29;20057;-81
2023/03/13 10:58:18;;;;;;;2.65;1.73;;;;;;;;;;4878100;29;20041;-80
2023/03/13 11:00:44;;;;;;;5.05;1.77;;;;;;;;;;4868444;29;20052;-81
2023/03/13 11:03:13;;;;;;;2.25;1.60;;;;;;;;;;4881662;29;20120;-82
2023/03/13 11:05:42;;;;;;;6.22;1.80;;;;;;;;;;4878453;29;20053;-80
2023/03/13 11:08:18;;;;;;;1.75;1.60;;;;;;;;;;4877806;29;20025;-82
2023/03/13 11:11:10;;;;;;;1.88;1.45;;;;;;;;;;4880974;29;20036;-83
2023/03/13 11:13:41;;;;;;;2.80;1.60;;;;;;;;;;4877028;29;20033;-81
2023/03/13 11:16:21;;;;;;;1.70;1.60;;;;;;;;;;4879938;29;20034;-82
2023/03/13 11:18:47;;;;;;;2.25;1.63;;;;;;;;;;4880090;29;20039;-82
2023/03/13 11:21:19;;;;;;;1.60;1.50;;;;;;;;;;4872757;29;20032;-80
2023/03/13 11:23:49;;;;;;;2.38;1.77;;;;;;;;;;4876623;29;20049;-82
2023/03/13 11:26:19;;;;;;;2.92;1.60;;;;;;;;;;4873060;29;20117;-81
2023/03/13 11:29:04;;;;;;;1.75;1.65;;;;;;;;;;4872765;29;20029;-79
2023/03/13 11:31:35;;;;;;;1.55;1.45;;;;;;;;;;4866040;29;20064;-80
2023/03/13 11:34:20;;;;;;;2.28;1.63;;;;;;;;;;4872118;29;20025;-81
2023/03/13 11:36:56;;;;;;;3.17;1.90;;;;;;;;;;4874369;29;20065;-80
2023/03/13 11:39:43;;;;;;;2.30;1.58;;;;;;;;;;4867790;29;20033;-79
2023/03/13 11:42:15;;;;;;;1.77;1.65;;;;;;;;;;4857293;29;20042;-79
2023/03/13 11:44:44;;;;;;;1.80;1.70;;;;;;;;;;4875776;29;20033;-80
2023/03/13 11:47:16;;;;;;;1.50;1.40;;;;;;;;;;4877013;29;20029;-81
2023/03/13 11:49:45;;;;;;;1.50;1.40;;;;;;;;;;4871943;29;20029;-82
2023/03/13 11:52:17;;;;;;;1.60;1.50;;;;;;;;;;4869353;29;20030;-80
2023/03/13 11:55:02;;;;;;;1.63;1.52;;;;;;;;;;4864831;29;20972;-80
2023/03/13 11:57:34;;;;;;;2.47;1.77;;;;;;;;;;4868507;29;20108;-81
2023/03/13 12:00:15;;;;;;;3.63;2.22;;;;;;;;;;4872468;29;20331;-80
2023/03/13 12:02:48;;;;;;;1.70;1.60;;;;;;;;;;4869540;29;20041;-81
2023/03/13 12:05:16;;;;;;;2.70;1.70;;;;;;;;;;4878840;29;20037;-80
2023/03/13 12:07:45;;;;;;;3.10;2.03;;;;;;;;;;4871870;29;20026;-79
2023/03/13 12:10:11;;;;;;;3.67;2.20;;;;;;;;;;4874074;29;20038;-80
2023/03/13 12:12:37;;;;;;;2.08;1.70;;;;;;;;;;4872838;29;20085;-80
2023/03/13 12:15:15;;;;;;;3.25;1.60;;;;;;;;;;4870800;29;20191;-80
2023/03/13 12:17:46;;;;;;;1.38;1.25;;;;;;;;;;4869731;29;20040;-82
2023/03/13 12:20:15;;;;;;;2.53;1.63;;;;;;;;;;4875656;29;20041;-79
2023/03/13 12:22:59;;;;;;;3.30;1.80;;;;;;;;;;4874548;29;20037;-79
2023/03/13 12:25:44;;;;;;;3.17;1.83;;;;;;;;;;4871680;29;20085;-80
2023/03/13 12:28:18;;;;;;;3.95;2.00;;;;;;;;;;4877505;29;20053;-81
2023/03/13 12:30:50;;;;;;;3.88;1.80;;;;;;;;;;4888516;29;20080;-81
2023/03/13 12:33:16;;;;;;;2.47;1.85;;;;;;;;;;4883540;29;20495;-80
2023/03/13 12:35:46;;;;;;;2.47;1.70;;;;;;;;;;4879271;29;20053;-81
2023/03/13 12:38:15;;;;;;;3.20;1.83;;;;;;;;;;4877586;29;20029;-81
2023/03/13 12:40:44;;;;;;;3.47;2.20;;;;;;;;;;4875192;29;20041;-82
2023/03/13 12:43:17;;;;;;;2.75;1.70;;;;;;;;;;4883371;29;20016;-82
2023/03/13 12:46:06;;;;;;;4.35;2.30;;;;;;;;;;4882594;29;20037;-80
2023/03/13 12:48:49;;;;;;;2.95;1.85;;;;;;;;;;4867186;29;20041;-81
2023/03/13 12:51:38;;;;;;;7.30;2.22;;;;;;;;;;4875506;29;20041;-81
2023/03/13 12:54:23;;;;;;;5.65;2.85;;;;;;;;;;4871086;29;20503;-78
2023/03/13 12:57:12;;;;;;;4.00;2.65;;;;;;;;;;4885749;29;20044;-80
2023/03/13 12:59:40;;;;;;;9.13;3.75;;;;;;;;;;4874013;29;20017;-81
2023/03/13 13:02:15;;;;;;;6.68;4.05;;;;;;;;;;4901549;29;20021;-82
2023/03/13 13:04:43;;;;;;;8.75;3.53;;;;;;;;;;4899466;23;20057;-87
2023/03/13 13:07:18;;;;;;;5.63;2.90;;;;;;;;;;4871993;29;20140;-89
2023/03/13 13:09:46;;;;;;;;;;;;;;;;;;4888517;29;20439;-87
2023/03/13 13:12:19;;;;;;;6.88;2.25;;;;;;;;;;4888646;29;20630;-90
2023/03/13 13:14:49;;;;;;;7.00;2.47;;;;;;;;;;4888015;29;20037;-89
2023/03/13 13:17:18;;;;;;;4.35;2.58;;;;;;;;;;4888767;29;20043;-91
2023/03/13 13:19:45;;;;;;;4.55;2.70;;;;;;;;;;4889244;29;20101;-89
2023/03/13 13:22:32;;;;;;;7.25;3.97;;;;;;;;;;4889501;29;20025;-89
2023/03/13 13:24:59;;;;;;;6.90;3.13;;;;;;;;;;4892446;29;20056;-90
2023/03/13 13:27:34;;;;;;;11.55;5.28;;;;;;;;;;4893572;29;20032;-89
2023/03/13 13:33:10;;;;;;;8.45;4.07;;;;;;;;;;5151799;23;20056;-77
2023/03/13 13:35:36;;;;;;;5.05;2.63;;;;;;;;;;4884383;29;20029;-78
2023/03/13 13:38:18;;;;;;;11.32;3.03;;;;;;;;;;4895553;29;20073;-76
2023/03/13 13:41:03;;;;;;;7.32;2.47;;;;;;;;;;4892668;29;20052;-78
2023/03/13 13:43:29;;;;;;;;;;;;;;;;;;4891511;29;20033;-82
2023/03/13 13:46:07;;;;;;;3.22;2.10;;;;;;;;;;4888466;29;19942;-78
2023/03/13 13:48:43;;;;;;;3.72;1.60;;;;;;;;;;4896541;29;20080;-78
2023/03/13 13:51:17;;;;;;;2.13;1.60;;;;;;;;;;4871749;29;20037;-82
2023/03/13 13:53:49;;;;;;;1.95;1.70;;;;;;;;;;4887265;29;20092;-77
2023/03/13 13:56:28;;;;;;;2.95;1.85;;;;;;;;;;4883765;29;20063;-81
2023/03/13 13:58:57;;;;;;;3.58;1.75;;;;;;;;;;4887329;29;20551;-82
2023/03/13 14:01:23;;;;;;;2.17;1.77;;;;;;;;;;4883466;29;20093;-79
2023/03/13 14:03:51;;;;;;;2.40;1.88;;;;;;;;;;4886530;29;20486;-80
2023/03/13 14:06:17;;;;;;;2.70;1.50;;;;;;;;;;4886707;29;20035;-81
2023/03/13 14:08:44;;;;;;;2.03;1.60;;;;;;;;;;4885675;29;20492;-80
2023/03/13 14:11:12;;;;;;;2.17;1.70;;;;;;;;;;4884797;29;20036;-80
2023/03/13 14:13:38;;;;;;;3.00;2.20;;;;;;;;;;4891437;29;20060;-80
2023/03/13 14:16:20;;;;;;;2.42;1.83;;;;;;;;;;4883159;29;20079;-80
2023/03/13 14:18:46;;;;;;;2.95;2.03;;;;;;;;;;4885833;29;20041;-81
2023/03/13 14:21:13;;;;;;;3.35;2.53;;;;;;;;;;4886674;29;20037;-80
2023/03/13 14:23:41;;;;;;;3.47;2.55;;;;;;;;;;4882772;29;20373;-80
2023/03/13 14:26:10;;;;;;;2.10;1.90;;;;;;;;;;4877787;29;20032;-80
2023/03/13 14:28:38;;;;;;;3.13;2.20;;;;;;;;;;4881206;29;20017;-80
2023/03/13 14:31:04;;;;;;;3.17;2.53;;;;;;;;;;4896742;29;20158;-81
2023/03/13 14:33:30;;;;;;;2.50;2.30;;;;;;;;;;4891091;29;20049;-81
2023/03/13 14:35:56;;;;;;;4.70;2.53;;;;;;;;;;4897390;29;20028;-79
2023/03/13 14:38:24;;;;;;;2.95;2.60;;;;;;;;;;4905713;29;20024;-81
2023/03/13 14:40:52;;;;;;;3.30;2.70;;;;;;;;;;4905461;29;20112;-81
2023/03/13 14:43:21;;;;;;;2.97;2.53;;;;;;;;;;4906239;29;20024;-83
2023/03/13 14:45:48;;;;;;;4.32;2.47;;;;;;;;;;4898122;29;20045;-81
2023/03/13 14:48:14;;;;;;;3.30;2.03;;;;;;;;;;4895145;29;20033;-81
2023/03/13 14:50:40;;;;;;;2.97;2.28;;;;;;;;;;4896890;29;20020;-82
2023/03/13 14:53:16;;;;;;;3.33;2.22;;;;;;;;;;4895881;29;20021;-81
2023/03/13 14:55:43;;;;;;;;;;;;;;;;;;4888857;29;20058;-81
2023/03/13 14:58:28;;;;;;;2.78;1.95;;;;;;;;;;4892094;29;19917;-80
2023/03/13 15:00:55;;;;;;;3.95;2.80;;;;;;;;;;4894087;29;20459;-80
2023/03/13 15:03:24;;;;;;;3.15;2.30;;;;;;;;;;4892161;29;20045;-83
2023/03/13 15:08:26;;;;;;;2.17;1.90;;;;;;;;;;5236063;23;20041;-81